sensor_id;sensor_type;location;lat;lon;timestamp;pressure;altitude;pressure_sealevel;temperature;humidity
66588;BME280;53446;50.076;8.198;2024-01-15T00:01:56;98403.38;;;-2.05;100.00
66588;BME280;53446;50.076;8.198;2024-01-15T00:03:56;98408.69;;;-2.05;100.00
66588;BME280;53446;50.076;8.198;2024-01-15T00:05:57;98398.94;;;-2.05;100.00
66588;BME280;53446;50.076;8.198;2024-01-15T00:07:57;98398.94;;;-2.05;100.00
66588;BME280;53446;50.076;8.198;2024-01-15T00:09:57;98396.34;;;-2.06;100.00
66588;BME280;53446;50.076;8.198;2024-01-15T00:11:59;98390.81;;;-2.00;100.00
66588;BME280;53446;50.076;8.198;2024-01-15T00:13:59;98383.56;;;-1.97;100.00
66588;BME280;53446;50.076;8.198;2024-01-15T00:15:59;98382.06;;;-2.02;100.00
66588;BME280;53446;50.076;8.198;2024-01-15T00:18:00;98388.03;;;-1.97;100.00
66588;BME280;53446;50.076;8.198;2024-01-15T00:20:00;98383.38;;;-1.92;100.00
66588;BME280;53446;50.076;8.198;2024-01-15T00:22:00;98381.41;;;-1.87;100.00
66588;BME280;53446;50.076;8.198;2024-01-15T00:24:00;98385.59;;;-1.81;100.00
66588;BME280;53446;50.076;8.198;2024-01-15T00:26:01;98372.94;;;-1.75;100.00
66588;BME280;53446;50.076;8.198;2024-01-15T00:28:01;98378.25;;;-1.75;100.00
66588;BME280;53446;50.076;8.198;2024-01-15T00:30:02;98373.63;;;-1.69;100.00
66588;BME280;53446;50.076;8.198;2024-01-15T00:32:02;98369.13;;;-1.67;100.00
66588;BME280;53446;50.076;8.198;2024-01-15T00:34:02;98362.22;;;-1.72;100.00
66588;BME280;53446;50.076;8.198;2024-01-15T00:36:03;98370.03;;;-1.68;100.00
66588;BME280;53446;50.076;8.198;2024-01-15T00:38:04;98367.31;;;-1.67;100.00
66588;BME280;53446;50.076;8.198;2024-01-15T00:40:05;98363.81;;;-1.67;100.00
66588;BME280;53446;50.076;8.198;2024-01-15T00:42:05;98365.47;;;-1.65;100.00
66588;BME280;53446;50.076;8.198;2024-01-15T00:44:06;98352.13;;;-1.63;100.00
66588;BME280;53446;50.076;8.198;2024-01-15T00:46:07;98360.03;;;-1.62;100.00
66588;BME280;53446;50.076;8.198;2024-01-15T00:48:07;98366.56;;;-1.71;100.00
66588;BME280;53446;50.076;8.198;2024-01-15T00:50:08;98358.75;;;-1.74;100.00
66588;BME280;53446;50.076;8.198;2024-01-15T00:52:08;98367.38;;;-1.68;100.00
66588;BME280;53446;50.076;8.198;2024-01-15T00:54:09;98373.66;;;-1.71;100.00
66588;BME280;53446;50.076;8.198;2024-01-15T00:56:09;98354.25;;;-1.72;100.00
66588;BME280;53446;50.076;8.198;2024-01-15T00:58:09;98370.16;;;-1.72;100.00
66588;BME280;53446;50.076;8.198;2024-01-15T01:00:10;98347.81;;;-1.66;100.00
66588;BME280;53446;50.076;8.198;2024-01-15T01:02:10;98338.75;;;-1.60;100.00
66588;BME280;53446;50.076;8.198;2024-01-15T01:04:11;98347.56;;;-1.60;100.00
66588;BME280;53446;50.076;8.198;2024-01-15T01:06:11;98348.41;;;-1.59;100.00
66588;BME280;53446;50.076;8.198;2024-01-15T01:08:11;98356.16;;;-1.55;100.00
66588;BME280;53446;50.076;8.198;2024-01-15T01:10:11;98359.28;;;-1.65;100.00
66588;BME280;53446;50.076;8.198;2024-01-15T01:12:12;98332.00;;;-1.67;100.00
66588;BME280;53446;50.076;8.198;2024-01-15T01:14:12;98340.81;;;-1.67;100.00
66588;BME280;53446;50.076;8.198;2024-01-15T01:16:12;98345.16;;;-1.66;100.00
66588;BME280;53446;50.076;8.198;2024-01-15T01:18:13;98339.88;;;-1.66;100.00
66588;BME280;53446;50.076;8.198;2024-01-15T01:20:13;98339.97;;;-1.67;100.00
66588;BME280;53446;50.076;8.198;2024-01-15T01:22:15;98336.38;;;-1.66;100.00
66588;BME280;53446;50.076;8.198;2024-01-15T01:24:15;98331.84;;;-1.64;100.00
66588;BME280;53446;50.076;8.198;2024-01-15T01:26:16;98329.34;;;-1.67;100.00
66588;BME280;53446;50.076;8.198;2024-01-15T01:28:17;98329.47;;;-1.71;100.00
66588;BME280;53446;50.076;8.198;2024-01-15T01:30:17;98330.91;;;-1.63;100.00
66588;BME280;53446;50.076;8.198;2024-01-15T01:32:17;98327.47;;;-1.65;100.00
66588;BME280;53446;50.076;8.198;2024-01-15T01:34:18;98323.72;;;-1.60;100.00
66588;BME280;53446;50.076;8.198;2024-01-15T01:36:18;98319.22;;;-1.58;100.00
66588;BME280;53446;50.076;8.198;2024-01-15T01:38:18;98331.66;;;-1.60;100.00
66588;BME280;53446;50.076;8.198;2024-01-15T01:40:19;98329.06;;;-1.61;100.00
66588;BME280;53446;50.076;8.198;2024-01-15T01:42:19;98331.38;;;-1.54;100.00
66588;BME280;53446;50.076;8.198;2024-01-15T01:44:20;98334.16;;;-1.57;100.00
66588;BME280;53446;50.076;8.198;2024-01-15T01:46:20;98344.56;;;-1.52;100.00
66588;BME280;53446;50.076;8.198;2024-01-15T01:48:20;98341.84;;;-1.51;100.00
66588;BME280;53446;50.076;8.198;2024-01-15T01:50:21;98356.03;;;-1.52;100.00
66588;BME280;53446;50.076;8.198;2024-01-15T01:52:22;98338.34;;;-1.51;100.00
66588;BME280;53446;50.076;8.198;2024-01-15T01:54:22;98348.81;;;-1.48;100.00
66588;BME280;53446;50.076;8.198;2024-01-15T01:56:23;98342.72;;;-1.50;100.00
66588;BME280;53446;50.076;8.198;2024-01-15T01:58:23;98351.47;;;-1.48;100.00
66588;BME280;53446;50.076;8.198;2024-01-15T02:00:25;98354.91;;;-1.46;100.00
66588;BME280;53446;50.076;8.198;2024-01-15T02:02:26;98360.31;;;-1.49;100.00
66588;BME280;53446;50.076;8.198;2024-01-15T02:04:26;98349.72;;;-1.49;100.00
66588;BME280;53446;50.076;8.198;2024-01-15T02:06:27;98342.56;;;-1.47;100.00
66588;BME280;53446;50.076;8.198;2024-01-15T02:08:27;98344.41;;;-1.49;100.00
66588;BME280;53446;50.076;8.198;2024-01-15T02:10:27;98337.16;;;-1.44;100.00
66588;BME280;53446;50.076;8.198;2024-01-15T02:12:28;98347.56;;;-1.39;100.00
66588;BME280;53446;50.076;8.198;2024-01-15T02:14:28;98323.69;;;-1.39;100.00
66588;BME280;53446;50.076;8.198;2024-01-15T02:16:28;98329.00;;;-1.39;100.00
66588;BME280;53446;50.076;8.198;2024-01-15T02:18:28;98316.66;;;-1.40;100.00
66588;BME280;53446;50.076;8.198;2024-01-15T02:20:29;98314.59;;;-1.34;100.00
66588;BME280;53446;50.076;8.198;2024-01-15T02:22:30;98317.09;;;-1.31;100.00
66588;BME280;53446;50.076;8.198;2024-01-15T02:24:30;98321.53;;;-1.31;100.00
66588;BME280;53446;50.076;8.198;2024-01-15T02:26:31;98311.00;;;-1.33;100.00
66588;BME280;53446;50.076;8.198;2024-01-15T02:28:36;98329.44;;;-1.30;100.00
66588;BME280;53446;50.076;8.198;2024-01-15T02:30:40;98305.69;;;-1.33;100.00
66588;BME280;53446;50.076;8.198;2024-01-15T02:32:40;98309.13;;;-1.31;100.00
66588;BME280;53446;50.076;8.198;2024-01-15T02:34:41;98321.53;;;-1.31;100.00
66588;BME280;53446;50.076;8.198;2024-01-15T02:36:41;98310.66;;;-1.25;100.00
66588;BME280;53446;50.076;8.198;2024-01-15T02:38:42;98316.81;;;-1.24;100.00
66588;BME280;53446;50.076;8.198;2024-01-15T02:40:43;98307.91;;;-1.23;100.00
66588;BME280;53446;50.076;8.198;2024-01-15T02:42:44;98309.50;;;-1.19;100.00
66588;BME280;53446;50.076;8.198;2024-01-15T02:44:44;98314.16;;;-1.24;100.00
66588;BME280;53446;50.076;8.198;2024-01-15T02:46:44;98325.69;;;-1.25;100.00
66588;BME280;53446;50.076;8.198;2024-01-15T02:48:45;98317.09;;;-1.31;100.00
66588;BME280;53446;50.076;8.198;2024-01-15T02:50:45;98311.78;;;-1.31;100.00
66588;BME280;53446;50.076;8.198;2024-01-15T02:52:45;98310.19;;;-1.35;100.00
66588;BME280;53446;50.076;8.198;2024-01-15T02:54:45;98323.34;;;-1.32;100.00
66588;BME280;53446;50.076;8.198;2024-01-15T02:56:46;98318.16;;;-1.35;100.00
66588;BME280;53446;50.076;8.198;2024-01-15T02:58:46;98304.78;;;-1.32;100.00
66588;BME280;53446;50.076;8.198;2024-01-15T03:00:46;98309.28;;;-1.34;100.00
66588;BME280;53446;50.076;8.198;2024-01-15T03:02:48;98314.44;;;-1.31;100.00
66588;BME280;53446;50.076;8.198;2024-01-15T03:04:50;98310.78;;;-1.28;100.00
66588;BME280;53446;50.076;8.198;2024-01-15T03:06:50;98314.38;;;-1.29;100.00
66588;BME280;53446;50.076;8.198;2024-01-15T03:08:50;98311.72;;;-1.29;100.00
66588;BME280;53446;50.076;8.198;2024-01-15T03:10:51;98323.19;;;-1.29;100.00
66588;BME280;53446;50.076;8.198;2024-01-15T03:12:51;98309.94;;;-1.29;100.00
66588;BME280;53446;50.076;8.198;2024-01-15T03:14:51;98320.53;;;-1.29;100.00
66588;BME280;53446;50.076;8.198;2024-01-15T03:16:52;98323.97;;;-1.26;100.00
66588;BME280;53446;50.076;8.198;2024-01-15T03:18:52;98320.38;;;-1.25;100.00
66588;BME280;53446;50.076;8.198;2024-01-15T03:20:53;98315.88;;;-1.23;100.00
66588;BME280;53446;50.076;8.198;2024-01-15T03:22:53;98315.28;;;-1.30;100.00
66588;BME280;53446;50.076;8.198;2024-01-15T03:24:53;98307.22;;;-1.27;100.00
66588;BME280;53446;50.076;8.198;2024-01-15T03:26:53;98321.34;;;-1.26;100.00
66588;BME280;53446;50.076;8.198;2024-01-15T03:28:54;98306.34;;;-1.27;100.00
66588;BME280;53446;50.076;8.198;2024-01-15T03:30:54;98308.22;;;-1.30;100.00
66588;BME280;53446;50.076;8.198;2024-01-15T03:32:54;98305.69;;;-1.33;100.00
66588;BME280;53446;50.076;8.198;2024-01-15T03:34:55;98344.97;;;-1.41;100.00
66588;BME280;53446;50.076;8.198;2024-01-15T03:36:55;98311.13;;;-1.36;100.00
66588;BME280;53446;50.076;8.198;2024-01-15T03:38:55;98307.03;;;-1.43;100.00
66588;BME280;53446;50.076;8.198;2024-01-15T03:40:55;98310.13;;;-1.33;100.00
66588;BME280;53446;50.076;8.198;2024-01-15T03:42:56;98303.03;;;-1.33;100.00
66588;BME280;53446;50.076;8.198;2024-01-15T03:44:56;98303.03;;;-1.33;100.00
66588;BME280;53446;50.076;8.198;2024-01-15T03:46:56;98311.94;;;-1.34;100.00
66588;BME280;53446;50.076;8.198;2024-01-15T03:48:58;98311.00;;;-1.33;100.00
66588;BME280;53446;50.076;8.198;2024-01-15T03:50:58;98309.22;;;-1.32;100.00
66588;BME280;53446;50.076;8.198;2024-01-15T03:52:58;98299.47;;;-1.32;100.00
66588;BME280;53446;50.076;8.198;2024-01-15T03:54:58;98306.69;;;-1.35;100.00
66588;BME280;53446;50.076;8.198;2024-01-15T03:56:59;98308.75;;;-1.42;100.00
66588;BME280;53446;50.076;8.198;2024-01-15T03:58:59;98302.38;;;-1.38;100.00
66588;BME280;53446;50.076;8.198;2024-01-15T04:00:59;98315.00;;;-1.43;100.00
66588;BME280;53446;50.076;8.198;2024-01-15T04:02:59;98310.44;;;-1.39;100.00
66588;BME280;53446;50.076;8.198;2024-01-15T04:05:00;98309.28;;;-1.34;100.00
66588;BME280;53446;50.076;8.198;2024-01-15T04:07:00;98311.13;;;-1.36;100.00
66588;BME280;53446;50.076;8.198;2024-01-15T04:09:00;98307.44;;;-1.32;100.00
66588;BME280;53446;50.076;8.198;2024-01-15T04:11:01;98312.00;;;-1.35;100.00
66588;BME280;53446;50.076;8.198;2024-01-15T04:13:01;98314.44;;;-1.31;100.00
66588;BME280;53446;50.076;8.198;2024-01-15T04:15:03;98295.75;;;-1.27;100.00
66588;BME280;53446;50.076;8.198;2024-01-15T04:17:04;98299.59;;;-1.35;100.00
66588;BME280;53446;50.076;8.198;2024-01-15T04:19:04;98312.63;;;-1.30;100.00
66588;BME280;53446;50.076;8.198;2024-01-15T04:21:05;98298.16;;;-1.23;100.00
66588;BME280;53446;50.076;8.198;2024-01-15T04:23:06;98293.88;;;-1.25;100.00
66588;BME280;53446;50.076;8.198;2024-01-15T04:25:07;98294.88;;;-1.28;100.00
66588;BME280;53446;50.076;8.198;2024-01-15T04:27:07;98302.91;;;-1.30;100.00
66588;BME280;53446;50.076;8.198;2024-01-15T04:29:08;98310.66;;;-1.25;100.00
66588;BME280;53446;50.076;8.198;2024-01-15T04:31:08;98294.88;;;-1.28;100.00
66588;BME280;53446;50.076;8.198;2024-01-15T04:33:08;98288.72;;;-1.29;100.00
66588;BME280;53446;50.076;8.198;2024-01-15T04:35:08;98314.06;;;-1.23;100.00
66588;BME280;53446;50.076;8.198;2024-01-15T04:37:09;98295.44;;;-1.21;100.00
66588;BME280;53446;50.076;8.198;2024-01-15T04:39:09;98286.63;;;-1.22;100.00
66588;BME280;53446;50.076;8.198;2024-01-15T04:41:14;98285.00;;;-1.24;100.00
66588;BME280;53446;50.076;8.198;2024-01-15T04:43:15;98287.28;;;-1.17;100.00
66588;BME280;53446;50.076;8.198;2024-01-15T04:45:16;98284.47;;;-1.14;100.00
66588;BME280;53446;50.076;8.198;2024-01-15T04:47:18;98288.78;;;-1.11;100.00
66588;BME280;53446;50.076;8.198;2024-01-15T04:49:18;98280.19;;;-1.16;100.00
66588;BME280;53446;50.076;8.198;2024-01-15T04:51:19;98284.41;;;-1.12;100.00
66588;BME280;53446;50.076;8.198;2024-01-15T04:53:19;98285.16;;;-1.09;100.00
66588;BME280;53446;50.076;8.198;2024-01-15T04:55:19;98280.91;;;-1.13;100.00
66588;BME280;53446;50.076;8.198;2024-01-15T04:57:19;98286.13;;;-1.11;100.00
66588;BME280;53446;50.076;8.198;2024-01-15T04:59:19;98277.94;;;-1.07;100.00
66588;BME280;53446;50.076;8.198;2024-01-15T05:01:20;98289.56;;;-1.09;100.00
66588;BME280;53446;50.076;8.198;2024-01-15T05:03:20;98269.94;;;-1.05;100.00
66588;BME280;53446;50.076;8.198;2024-01-15T05:05:20;98268.84;;;-1.01;100.00
66588;BME280;53446;50.076;8.198;2024-01-15T05:07:21;98266.91;;;-0.97;100.00
66588;BME280;53446;50.076;8.198;2024-01-15T05:09:21;98271.06;;;-0.92;100.00
66588;BME280;53446;50.076;8.198;2024-01-15T05:11:21;98270.34;;;-0.95;100.00
66588;BME280;53446;50.076;8.198;2024-01-15T05:13:21;98267.00;;;-0.99;100.00
66588;BME280;53446;50.076;8.198;2024-01-15T05:15:22;98270.28;;;-0.94;100.00
66588;BME280;53446;50.076;8.198;2024-01-15T05:17:22;98271.34;;;-0.98;100.00
66588;BME280;53446;50.076;8.198;2024-01-15T05:19:22;98267.31;;;-0.88;100.00
66588;BME280;53446;50.076;8.198;2024-01-15T05:21:22;98272.84;;;-0.92;100.00
66588;BME280;53446;50.076;8.198;2024-01-15T05:23:23;98269.22;;;-0.90;100.00
66588;BME280;53446;50.076;8.198;2024-01-15T05:25:23;98268.50;;;-0.93;100.00
66588;BME280;53446;50.076;8.198;2024-01-15T05:27:23;98269.34;;;-0.93;100.00
66588;BME280;53446;50.076;8.198;2024-01-15T05:29:23;98264.19;;;-0.96;100.00
66588;BME280;53446;50.076;8.198;2024-01-15T05:31:24;98264.41;;;-1.00;100.00
66588;BME280;53446;50.076;8.198;2024-01-15T05:33:24;98263.41;;;-0.98;100.00
66588;BME280;53446;50.076;8.198;2024-01-15T05:35:24;98263.47;;;-0.99;100.00
66588;BME280;53446;50.076;8.198;2024-01-15T05:37:24;98259.03;;;-0.99;100.00
66588;BME280;53446;50.076;8.198;2024-01-15T05:39:25;98260.03;;;-1.01;100.00
66588;BME280;53446;50.076;8.198;2024-01-15T05:41:25;98265.34;;;-1.01;100.00
66588;BME280;53446;50.076;8.198;2024-01-15T05:43:25;98274.66;;;-1.12;100.00
66588;BME280;53446;50.076;8.198;2024-01-15T05:45:26;98250.72;;;-1.10;100.00
66588;BME280;53446;50.076;8.198;2024-01-15T05:47:26;98255.19;;;-1.11;100.00
66588;BME280;53446;50.076;8.198;2024-01-15T05:49:27;98257.03;;;-1.13;100.00
66588;BME280;53446;50.076;8.198;2024-01-15T05:51:27;98262.13;;;-1.08;100.00
66588;BME280;53446;50.076;8.198;2024-01-15T05:53:27;98248.75;;;-1.07;100.00
66588;BME280;53446;50.076;8.198;2024-01-15T05:55:28;98247.75;;;-1.04;100.00
66588;BME280;53446;50.076;8.198;2024-01-15T05:57:28;98264.63;;;-1.05;100.00
66588;BME280;53446;50.076;8.198;2024-01-15T05:59:28;98260.75;;;-0.98;100.00
66588;BME280;53446;50.076;8.198;2024-01-15T06:01:31;98249.34;;;-1.00;100.00
66588;BME280;53446;50.076;8.198;2024-01-15T06:03:32;98262.47;;;-0.97;100.00
66588;BME280;53446;50.076;8.198;2024-01-15T06:05:32;98258.88;;;-0.96;100.00
66588;BME280;53446;50.076;8.198;2024-01-15T06:07:35;98252.72;;;-0.96;100.00
66588;BME280;53446;50.076;8.198;2024-01-15T06:09:36;98234.78;;;-0.91;100.00
66588;BME280;53446;50.076;8.198;2024-01-15T06:11:37;98245.25;;;-0.88;100.00
66588;BME280;53446;50.076;8.198;2024-01-15T06:13:37;98230.97;;;-0.86;100.00
66588;BME280;53446;50.076;8.198;2024-01-15T06:15:37;98238.06;;;-0.86;100.00
66588;BME280;53446;50.076;8.198;2024-01-15T06:17:37;98238.78;;;-0.82;100.00
66588;BME280;53446;50.076;8.198;2024-01-15T06:19:38;98238.22;;;-0.89;100.00
66588;BME280;53446;50.076;8.198;2024-01-15T06:21:38;98233.47;;;-0.82;100.00
66588;BME280;53446;50.076;8.198;2024-01-15T06:23:38;98236.91;;;-0.80;100.00
66588;BME280;53446;50.076;8.198;2024-01-15T06:25:38;98245.66;;;-0.78;100.00
66588;BME280;53446;50.076;8.198;2024-01-15T06:27:39;98243.63;;;-0.73;100.00
66588;BME280;53446;50.076;8.198;2024-01-15T06:29:45;98248.06;;;-0.74;100.00
66588;BME280;53446;50.076;8.198;2024-01-15T06:31:46;98244.78;;;-0.79;100.00
66588;BME280;53446;50.076;8.198;2024-01-15T06:33:46;98250.81;;;-0.75;100.00
66588;BME280;53446;50.076;8.198;2024-01-15T06:35:48;98250.81;;;-0.75;100.00
66588;BME280;53446;50.076;8.198;2024-01-15T06:37:49;98245.34;;;-0.72;100.00
66588;BME280;53446;50.076;8.198;2024-01-15T06:39:49;98252.38;;;-0.71;100.00
66588;BME280;53446;50.076;8.198;2024-01-15T06:41:50;98239.75;;;-0.66;100.00
66588;BME280;53446;50.076;8.198;2024-01-15T06:43:50;98259.41;;;-0.70;100.00
66588;BME280;53446;50.076;8.198;2024-01-15T06:45:50;98250.50;;;-0.69;100.00
66588;BME280;53446;50.076;8.198;2024-01-15T06:47:50;98253.72;;;-0.62;100.00
66588;BME280;53446;50.076;8.198;2024-01-15T06:49:51;98251.78;;;-0.59;100.00
66588;BME280;53446;50.076;8.198;2024-01-15T06:51:52;98248.19;;;-0.58;100.00
66588;BME280;53446;50.076;8.198;2024-01-15T06:53:52;98258.97;;;-0.61;100.00
66588;BME280;53446;50.076;8.198;2024-01-15T06:55:52;98241.47;;;-0.65;100.00
66588;BME280;53446;50.076;8.198;2024-01-15T06:57:53;98244.19;;;-0.67;100.00
66588;BME280;53446;50.076;8.198;2024-01-15T06:59:53;98247.06;;;-0.71;100.00
66588;BME280;53446;50.076;8.198;2024-01-15T07:01:53;98245.66;;;-0.78;100.00
66588;BME280;53446;50.076;8.198;2024-01-15T07:03:55;98248.16;;;-0.75;100.00
66588;BME280;53446;50.076;8.198;2024-01-15T07:05:55;98247.22;;;-0.74;100.00
66588;BME280;53446;50.076;8.198;2024-01-15T07:07:55;98246.06;;;-0.69;100.00
66588;BME280;53446;50.076;8.198;2024-01-15T07:09:55;98245.19;;;-0.69;100.00
66588;BME280;53446;50.076;8.198;2024-01-15T07:11:56;98246.94;;;-0.68;100.00
66588;BME280;53446;50.076;8.198;2024-01-15T07:13:57;98239.81;;;-0.68;100.00
66588;BME280;53446;50.076;8.198;2024-01-15T07:15:58;98239.75;;;-0.66;100.00
66588;BME280;53446;50.076;8.198;2024-01-15T07:17:58;98236.00;;;-0.62;100.00
66588;BME280;53446;50.076;8.198;2024-01-15T07:19:58;98242.88;;;-0.58;100.00
66588;BME280;53446;50.076;8.198;2024-01-15T07:21:59;98254.34;;;-0.57;100.00
66588;BME280;53446;50.076;8.198;2024-01-15T07:23:59;98251.47;;;-0.53;100.00
66588;BME280;53446;50.076;8.198;2024-01-15T07:25:59;98241.88;;;-0.55;100.00
66588;BME280;53446;50.076;8.198;2024-01-15T07:27:59;98237.28;;;-0.52;100.00
66588;BME280;53446;50.076;8.198;2024-01-15T07:30:00;98237.28;;;-0.52;100.00
66588;BME280;53446;50.076;8.198;2024-01-15T07:32:00;98245.38;;;-0.55;100.00
66588;BME280;53446;50.076;8.198;2024-01-15T07:34:00;98241.81;;;-0.54;100.00
66588;BME280;53446;50.076;8.198;2024-01-15T07:36:01;98238.97;;;-0.51;100.00
66588;BME280;53446;50.076;8.198;2024-01-15T07:38:03;98247.75;;;-0.49;100.00
66588;BME280;53446;50.076;8.198;2024-01-15T07:40:03;98242.25;;;-0.46;100.00
66588;BME280;53446;50.076;8.198;2024-01-15T07:42:04;98234.28;;;-0.46;100.00
66588;BME280;53446;50.076;8.198;2024-01-15T07:44:05;98239.59;;;-0.46;100.00
66588;BME280;53446;50.076;8.198;2024-01-15T07:46:05;98240.41;;;-0.44;100.00
66588;BME280;53446;50.076;8.198;2024-01-15T07:48:07;98235.69;;;-0.38;100.00
66588;BME280;53446;50.076;8.198;2024-01-15T07:50:07;98243.84;;;-0.41;100.00
66588;BME280;53446;50.076;8.198;2024-01-15T07:52:07;98238.28;;;-0.37;100.00
66588;BME280;53446;50.076;8.198;2024-01-15T07:54:08;98245.09;;;-0.31;100.00
66588;BME280;53446;50.076;8.198;2024-01-15T07:56:08;98235.41;;;-0.32;100.00
66588;BME280;53446;50.076;8.198;2024-01-15T07:58:08;98238.69;;;-0.27;100.00
66588;BME280;53446;50.076;8.198;2024-01-15T08:00:09;98227.75;;;-0.21;100.00
66588;BME280;53446;50.076;8.198;2024-01-15T08:02:09;98232.66;;;-0.13;100.00
66588;BME280;53446;50.076;8.198;2024-01-15T08:04:10;98228.03;;;-0.10;100.00
66588;BME280;53446;50.076;8.198;2024-01-15T08:06:13;98224.47;;;-0.09;100.00
66588;BME280;53446;50.076;8.198;2024-01-15T08:08:13;98232.09;;;-0.03;100.00
66588;BME280;53446;50.076;8.198;2024-01-15T08:10:13;98222.97;;;0.03;100.00
66588;BME280;53446;50.076;8.198;2024-01-15T08:12:14;98228.34;;;0.02;100.00
66588;BME280;53446;50.076;8.198;2024-01-15T08:14:14;98221.78;;;0.09;100.00
66588;BME280;53446;50.076;8.198;2024-01-15T08:16:15;98220.75;;;0.11;100.00
66588;BME280;53446;50.076;8.198;2024-01-15T08:18:15;98228.47;;;0.16;100.00
66588;BME280;53446;50.076;8.198;2024-01-15T08:20:16;98230.22;;;0.17;100.00
66588;BME280;53446;50.076;8.198;2024-01-15T08:22:16;98231.84;;;0.19;100.00
66588;BME280;53446;50.076;8.198;2024-01-15T08:24:16;98231.75;;;0.21;100.00
66588;BME280;53446;50.076;8.198;2024-01-15T08:26:16;98223.63;;;0.24;100.00
66588;BME280;53446;50.076;8.198;2024-01-15T08:28:17;98228.00;;;0.25;100.00
66588;BME280;53446;50.076;8.198;2024-01-15T08:30:17;98226.13;;;0.27;100.00
66588;BME280;53446;50.076;8.198;2024-01-15T08:32:18;98226.72;;;0.32;100.00
66588;BME280;53446;50.076;8.198;2024-01-15T08:34:19;98230.88;;;0.38;100.00
66588;BME280;53446;50.076;8.198;2024-01-15T08:36:19;98227.19;;;0.40;100.00
66588;BME280;53446;50.076;8.198;2024-01-15T08:38:19;98228.91;;;0.41;100.00
66588;BME280;53446;50.076;8.198;2024-01-15T08:40:20;98223.50;;;0.43;100.00
66588;BME280;53446;50.076;8.198;2024-01-15T08:42:20;98225.13;;;0.46;100.00
66588;BME280;53446;50.076;8.198;2024-01-15T08:44:20;98211.84;;;0.46;100.00
66588;BME280;53446;50.076;8.198;2024-01-15T08:46:21;98228.47;;;0.49;100.00
66588;BME280;53446;50.076;8.198;2024-01-15T08:48:21;98223.16;;;0.49;100.00
66588;BME280;53446;50.076;8.198;2024-01-15T08:50:21;98220.50;;;0.49;100.00
66588;BME280;53446;50.076;8.198;2024-01-15T08:52:21;98232.75;;;0.52;100.00
66588;BME280;53446;50.076;8.198;2024-01-15T08:54:22;98228.22;;;0.54;100.00
66588;BME280;53446;50.076;8.198;2024-01-15T08:56:22;98229.06;;;0.54;100.00
66588;BME280;53446;50.076;8.198;2024-01-15T08:58:23;98233.78;;;0.49;100.00
66588;BME280;53446;50.076;8.198;2024-01-15T09:00:23;98247.78;;;0.53;100.00
66588;BME280;53446;50.076;8.198;2024-01-15T09:02:24;98240.00;;;0.50;100.00
66588;BME280;53446;50.076;8.198;2024-01-15T09:04:24;98244.19;;;0.54;100.00
66588;BME280;53446;50.076;8.198;2024-01-15T09:06:24;98242.66;;;0.50;100.00
66588;BME280;53446;50.076;8.198;2024-01-15T09:08:24;98247.97;;;0.50;100.00
66588;BME280;53446;50.076;8.198;2024-01-15T09:10:26;98259.03;;;0.58;100.00
66588;BME280;53446;50.076;8.198;2024-01-15T09:12:27;98247.13;;;0.65;100.00
66588;BME280;53446;50.076;8.198;2024-01-15T09:14:27;98252.44;;;0.65;100.00
66588;BME280;53446;50.076;8.198;2024-01-15T09:16:29;98242.50;;;0.69;100.00
66588;BME280;53446;50.076;8.198;2024-01-15T09:18:29;98247.72;;;0.70;100.00
66588;BME280;53446;50.076;8.198;2024-01-15T09:20:30;98244.75;;;0.76;100.00
66588;BME280;53446;50.076;8.198;2024-01-15T09:22:30;98240.81;;;0.83;100.00
66588;BME280;53446;50.076;8.198;2024-01-15T09:24:30;98230.50;;;0.93;100.00
66588;BME280;53446;50.076;8.198;2024-01-15T09:26:30;98236.50;;;0.97;100.00
66588;BME280;53446;50.076;8.198;2024-01-15T09:28:30;98224.66;;;1.02;100.00
66588;BME280;53446;50.076;8.198;2024-01-15T09:30:31;98214.88;;;1.19;100.00
66588;BME280;53446;50.076;8.198;2024-01-15T09:32:31;98216.47;;;1.37;100.00
66588;BME280;53446;50.076;8.198;2024-01-15T09:34:33;98214.78;;;1.51;100.00
66588;BME280;53446;50.076;8.198;2024-01-15T09:36:39;98213.81;;;1.37;100.00
66588;BME280;53446;50.076;8.198;2024-01-15T09:38:40;98208.44;;;1.23;100.00
66588;BME280;53446;50.076;8.198;2024-01-15T09:40:43;98212.09;;;1.20;100.00
66588;BME280;53446;50.076;8.198;2024-01-15T09:42:46;98212.09;;;1.20;100.00
66588;BME280;53446;50.076;8.198;2024-01-15T09:44:46;98208.84;;;1.15;100.00
66588;BME280;53446;50.076;8.198;2024-01-15T09:46:48;98218.50;;;1.02;100.00
66588;BME280;53446;50.076;8.198;2024-01-15T09:48:51;98211.50;;;1.15;100.00
66588;BME280;53446;50.076;8.198;2024-01-15T09:50:52;98212.97;;;1.21;100.00
66588;BME280;53446;50.076;8.198;2024-01-15T09:52:54;98216.75;;;1.33;100.00
66588;BME280;53446;50.076;8.198;2024-01-15T09:54:54;98214.41;;;1.42;100.00
66588;BME280;53446;50.076;8.198;2024-01-15T09:56:55;98208.69;;;1.48;100.00
66588;BME280;53446;50.076;8.198;2024-01-15T09:58:56;98204.84;;;1.54;100.00
66588;BME280;53446;50.076;8.198;2024-01-15T10:00:57;98202.00;;;1.72;100.00
66588;BME280;53446;50.076;8.198;2024-01-15T10:02:58;98203.97;;;1.98;100.00
66588;BME280;53446;50.076;8.198;2024-01-15T10:05:00;98202.84;;;2.02;100.00
66588;BME280;53446;50.076;8.198;2024-01-15T10:07:00;98202.25;;;1.97;100.00
66588;BME280;53446;50.076;8.198;2024-01-15T10:09:01;98210.25;;;1.97;100.00
66588;BME280;53446;50.076;8.198;2024-01-15T10:11:01;98203.66;;;1.88;100.00
66588;BME280;53446;50.076;8.198;2024-01-15T10:13:02;98203.22;;;1.96;100.00
66588;BME280;53446;50.076;8.198;2024-01-15T10:15:04;98211.09;;;1.83;100.00
66588;BME280;53446;50.076;8.198;2024-01-15T10:17:12;98207.66;;;1.81;100.00
66588;BME280;53446;50.076;8.198;2024-01-15T10:19:14;98216.34;;;1.85;100.00
66588;BME280;53446;50.076;8.198;2024-01-15T10:21:14;98211.78;;;1.87;100.00
66588;BME280;53446;50.076;8.198;2024-01-15T10:23:15;98207.56;;;1.83;100.00
66588;BME280;53446;50.076;8.198;2024-01-15T10:25:15;98202.72;;;1.75;100.00
66588;BME280;53446;50.076;8.198;2024-01-15T10:27:16;98203.41;;;1.63;100.00
66588;BME280;53446;50.076;8.198;2024-01-15T10:29:16;98200.66;;;1.64;100.00
66588;BME280;53446;50.076;8.198;2024-01-15T10:31:16;98198.28;;;1.60;100.00
66588;BME280;53446;50.076;8.198;2024-01-15T10:33:21;98199.38;;;1.56;100.00